Time;durP1;ratioP1;P1;durP2;ratioP2;P2;SDS_P1;SDS_P2;PMS_P1;PMS_P2;Temp;Humidity;BMP_temperature;BMP_pressure;BME280_temperature;BME280_humidity;BME280_pressure;Samples;Min_cycle;Max_cycle;Signal;HPM_P1;HPM_P2
2023/08/18 00:01:42;;;;;;;17.70;13.45;;;;;;;17.66;100.00;101632.50;6207648;23;20013;-84
2023/08/18 00:04:07;;;;;;;17.52;13.13;;;;;;;17.64;100.00;101625.66;6180102;23;20023;-85
2023/08/18 00:06:33;;;;;;;17.90;13.57;;;;;;;17.65;100.00;101625.47;6207572;23;20008;-86
2023/08/18 00:08:58;;;;;;;16.98;12.77;;;;;;;17.63;100.00;101622.16;6207378;23;20013;-85
2023/08/18 00:11:23;;;;;;;15.88;12.18;;;;;;;17.60;100.00;101623.38;6207052;23;20448;-86
2023/08/18 00:13:49;;;;;;;14.82;12.20;;;;;;;17.66;100.00;101637.03;6207680;23;20084;-85
2023/08/18 00:16:14;;;;;;;16.35;12.02;;;;;;;17.70;100.00;101638.31;6206757;23;20079;-86
2023/08/18 00:18:39;;;;;;;15.60;11.85;;;;;;;17.63;100.00;101626.69;6206572;23;20027;-84
2023/08/18 00:21:05;;;;;;;17.05;12.32;;;;;;;17.56;100.00;101611.34;6207033;23;20084;-88
2023/08/18 00:23:30;;;;;;;15.00;12.15;;;;;;;17.63;100.00;101626.69;6179982;23;20001;-85
2023/08/18 00:25:55;;;;;;;15.77;12.05;;;;;;;17.67;100.00;101627.97;6180048;23;20005;-84
2023/08/18 00:28:21;;;;;;;16.30;12.05;;;;;;;17.56;100.00;101605.97;6207265;23;20491;-85
2023/08/18 00:30:46;;;;;;;16.27;12.00;;;;;;;17.59;100.00;101615.50;6206839;23;20018;-85
2023/08/18 00:33:11;;;;;;;15.13;11.50;;;;;;;17.64;100.00;101631.03;6180191;23;20154;-83
2023/08/18 00:35:37;;;;;;;14.13;11.85;;;;;;;17.59;100.00;101618.19;6207090;23;20032;-87
2023/08/18 00:38:02;;;;;;;16.98;11.50;;;;;;;17.61;100.00;101619.66;6206729;23;20059;-86
2023/08/18 00:40:28;;;;;;;18.02;11.90;;;;;;;17.54;100.00;101616.09;6207348;23;20005;-86
2023/08/18 00:42:53;;;;;;;15.20;11.52;;;;;;;17.61;100.00;101622.34;6179759;23;20013;-84
2023/08/18 00:45:18;;;;;;;14.77;10.90;;;;;;;17.47;100.00;101604.44;6206686;23;20031;-86
2023/08/18 00:47:44;;;;;;;14.98;11.02;;;;;;;17.49;100.00;101602.41;6206978;23;20040;-84
2023/08/18 00:50:11;;;;;;;14.32;10.98;;;;;;;17.52;100.00;101615.41;6179856;23;20013;-86
2023/08/18 00:52:38;;;;;;;16.33;11.40;;;;;;;17.31;100.00;101598.28;6179934;23;20008;-85
2023/08/18 00:55:04;;;;;;;16.25;11.32;;;;;;;17.45;100.00;101610.00;6206982;23;20087;-85
2023/08/18 00:57:31;;;;;;;15.88;11.48;;;;;;;17.46;100.00;101616.19;6206803;23;20068;-83
2023/08/18 00:59:58;;;;;;;14.70;10.70;;;;;;;17.36;100.00;101608.44;6206404;23;20298;-84
2023/08/18 01:02:23;;;;;;;15.35;10.88;;;;;;;17.41;100.00;101623.97;6206973;23;20374;-85
2023/08/18 01:04:49;;;;;;;15.43;11.00;;;;;;;17.33;100.00;101604.28;6206969;23;20028;-86
2023/08/18 01:07:14;;;;;;;14.45;11.20;;;;;;;17.34;100.00;101597.91;6206574;23;20012;-85
2023/08/18 01:09:40;;;;;;;14.40;11.18;;;;;;;17.44;100.00;101619.06;6207254;23;20009;-86
2023/08/18 01:12:28;;;;;;;14.00;11.15;;;;;;;17.30;100.00;101593.09;6207009;23;20042;-86
2023/08/18 01:15:03;;;;;;;14.43;11.68;;;;;;;17.42;100.00;101618.41;6180506;23;20333;-84
2023/08/18 01:17:40;;;;;;;13.85;11.35;;;;;;;17.42;100.00;101625.63;6206378;23;20056;-85
2023/08/18 01:20:19;;;;;;;15.25;11.50;;;;;;;17.19;100.00;101589.06;6206651;23;20481;-87
2023/08/18 01:22:48;;;;;;;14.27;11.05;;;;;;;17.27;100.00;101602.34;6207338;23;20369;-83
2023/08/18 01:25:14;;;;;;;14.25;11.30;;;;;;;17.34;100.00;101605.97;6206634;23;20016;-84
2023/08/18 01:27:39;;;;;;;14.23;10.90;;;;;;;17.39;100.00;101604.53;6208490;23;20327;-85
2023/08/18 01:30:05;;;;;;;14.10;11.10;;;;;;;17.37;100.00;101590.50;6208977;23;20385;-85
2023/08/18 01:32:39;;;;;;;15.10;11.02;;;;;;;17.37;100.00;101590.50;6208041;23;20012;-84
2023/08/18 01:35:06;;;;;;;12.77;11.07;;;;;;;17.19;100.00;101578.34;6208357;23;20114;-84
2023/08/18 01:37:32;;;;;;;14.45;11.05;;;;;;;17.34;100.00;101589.88;6208267;23;20015;-85
2023/08/18 01:39:59;;;;;;;14.90;11.10;;;;;;;17.31;100.00;101582.19;6208208;23;20437;-85
2023/08/18 01:42:26;;;;;;;15.95;11.15;;;;;;;17.35;100.00;101588.00;6181415;23;20044;-84
2023/08/18 01:44:52;;;;;;;15.48;11.32;;;;;;;17.27;100.00;101574.72;6208621;23;20063;-86
2023/08/18 01:47:17;;;;;;;15.43;11.18;;;;;;;17.27;100.00;101575.53;6181385;23;20437;-85
2023/08/18 01:49:42;;;;;;;15.00;11.55;;;;;;;17.18;100.00;101560.59;6208537;23;20374;-84
2023/08/18 01:52:08;;;;;;;15.68;12.13;;;;;;;17.19;100.00;101567.63;6207155;23;20282;-85
2023/08/18 01:54:33;;;;;;;14.30;11.55;;;;;;;17.18;100.00;101563.28;6180471;23;20450;-84
2023/08/18 01:56:59;;;;;;;14.25;11.65;;;;;;;17.30;100.00;101577.03;6181225;23;20009;-85
2023/08/18 01:59:24;;;;;;;14.93;12.15;;;;;;;17.33;100.00;101580.16;6208136;23;20012;-82
2023/08/18 02:01:49;;;;;;;15.30;11.93;;;;;;;17.30;100.00;101563.63;6179224;23;20013;-83
2023/08/18 02:04:15;;;;;;;14.68;11.77;;;;;;;17.37;100.00;101575.25;6206093;23;20008;-85
2023/08/18 02:06:40;;;;;;;15.98;11.93;;;;;;;17.37;100.00;101569.06;6205549;23;20016;-85
2023/08/18 02:09:05;;;;;;;16.02;11.80;;;;;;;17.10;100.00;101540.09;6180537;23;20075;-84
2023/08/18 02:11:31;;;;;;;15.48;11.55;;;;;;;17.21;100.00;101569.09;6183913;23;20008;-87
2023/08/18 02:13:56;;;;;;;16.55;11.35;;;;;;;17.18;100.00;101574.81;6228203;23;20015;-84
2023/08/18 02:16:22;;;;;;;13.60;11.43;;;;;;;17.11;100.00;101571.22;6208200;23;20013;-85
2023/08/18 02:18:47;;;;;;;14.63;12.00;;;;;;;17.08;100.00;101567.06;6181359;23;20083;-85
2023/08/18 02:21:14;;;;;;;15.57;11.70;;;;;;;17.08;100.00;101572.44;6208503;23;20341;-84
2023/08/18 02:23:41;;;;;;;14.20;11.48;;;;;;;16.91;100.00;101545.00;6208256;23;20028;-85
2023/08/18 02:26:06;;;;;;;16.02;11.50;;;;;;;16.91;100.00;101549.50;6182034;23;20000;-86
2023/08/18 02:28:33;;;;;;;15.10;11.68;;;;;;;16.97;100.00;101562.16;6207539;23;20331;-86
2023/08/18 02:31:04;;;;;;;14.38;11.55;;;;;;;17.05;100.00;101559.44;6207829;23;20012;-84
2023/08/18 02:33:30;;;;;;;16.48;12.32;;;;;;;16.84;100.00;101537.88;6207479;23;20446;-84
2023/08/18 02:35:55;;;;;;;15.15;12.57;;;;;;;16.84;100.00;101543.25;6206959;23;20015;-85
2023/08/18 02:38:21;;;;;;;16.17;11.63;;;;;;;16.96;100.00;101568.53;6207191;23;20008;-83
2023/08/18 02:40:46;;;;;;;14.57;12.18;;;;;;;16.99;100.00;101561.97;6207752;23;20081;-85
2023/08/18 02:43:12;;;;;;;15.98;12.07;;;;;;;17.01;100.00;101559.94;6180946;23;20059;-85
2023/08/18 02:45:38;;;;;;;17.58;12.25;;;;;;;16.90;100.00;101550.53;6207985;23;20009;-86
2023/08/18 02:48:04;;;;;;;14.45;11.73;;;;;;;16.83;100.00;101542.44;6180839;23;20094;-84
2023/08/18 02:50:29;;;;;;;15.80;11.80;;;;;;;16.77;100.00;101544.00;6207623;23;20075;-84
2023/08/18 02:52:55;;;;;;;18.08;11.82;;;;;;;16.89;100.00;101556.91;6181134;23;20035;-86
2023/08/18 02:55:20;;;;;;;16.67;12.45;;;;;;;16.96;100.00;101562.38;6207985;23;20005;-87
2023/08/18 02:57:45;;;;;;;16.80;12.70;;;;;;;16.98;100.00;101546.94;6208110;23;20008;-85
2023/08/18 03:00:11;;;;;;;16.13;12.60;;;;;;;16.93;100.00;101550.19;6208916;23;20009;-86
2023/08/18 03:02:37;;;;;;;18.00;13.10;;;;;;;16.92;100.00;101553.84;6208526;23;20015;-85
2023/08/18 03:05:03;;;;;;;15.60;12.40;;;;;;;16.70;100.00;101532.38;6208476;23;20344;-86
2023/08/18 03:07:28;;;;;;;15.90;12.13;;;;;;;16.84;100.00;101551.28;6209898;23;20008;-88
2023/08/18 03:09:54;;;;;;;17.02;12.77;;;;;;;16.89;100.00;101562.28;6210494;23;20094;-84
2023/08/18 03:12:19;;;;;;;16.55;12.77;;;;;;;16.71;100.00;101539.38;6222528;23;20008;-88
2023/08/18 03:14:45;;;;;;;16.48;13.30;;;;;;;16.68;100.00;101537.09;6194119;23;20031;-85
2023/08/18 03:17:10;;;;;;;18.85;13.18;;;;;;;16.66;100.00;101545.28;6191541;23;20005;-86
2023/08/18 03:19:35;;;;;;;16.83;13.40;;;;;;;16.58;100.00;101523.13;6216837;23;20454;-85
2023/08/18 03:22:01;;;;;;;16.05;12.38;;;;;;;16.65;100.00;101545.47;6215639;23;20059;-86
2023/08/18 03:24:26;;;;;;;15.63;12.23;;;;;;;16.70;100.00;101556.47;6212385;23;20236;-89
2023/08/18 03:26:52;;;;;;;16.88;12.80;;;;;;;16.54;100.00;101534.19;6207048;23;20086;-85
2023/08/18 03:29:17;;;;;;;16.88;12.65;;;;;;;16.69;100.00;101560.16;6207493;23;20019;-89
2023/08/18 03:31:42;;;;;;;17.70;12.98;;;;;;;16.68;100.00;101548.59;6207533;23;20480;-85
2023/08/18 03:34:07;;;;;;;17.45;12.95;;;;;;;16.63;100.00;101542.16;6180385;23;20034;-87
2023/08/18 03:36:33;;;;;;;17.88;13.43;;;;;;;16.61;100.00;101530.78;6180871;23;20009;-86
2023/08/18 03:38:58;;;;;;;18.60;13.40;;;;;;;16.68;100.00;101555.84;6208223;23;20479;-88
2023/08/18 03:41:24;;;;;;;18.58;13.98;;;;;;;16.56;100.00;101528.66;6207324;23;20012;-86
2023/08/18 03:43:49;;;;;;;18.75;13.98;;;;;;;16.61;100.00;101544.16;6207006;23;20012;-88
2023/08/18 03:46:25;;;;;;;17.70;13.65;;;;;;;16.71;100.00;101558.13;6180878;23;20012;-86
2023/08/18 03:48:50;;;;;;;18.23;14.40;;;;;;;16.61;100.00;101549.53;6180677;23;20013;-86
2023/08/18 03:51:16;;;;;;;17.80;13.63;;;;;;;16.65;100.00;101554.34;6207069;23;20009;-85
2023/08/18 03:53:41;;;;;;;17.80;13.45;;;;;;;16.46;100.00;101531.63;6180692;23;20016;-86
2023/08/18 03:56:07;;;;;;;17.67;14.20;;;;;;;16.66;100.00;101552.47;6207266;23;20005;-87
2023/08/18 03:58:32;;;;;;;18.70;14.40;;;;;;;16.56;100.00;101547.41;6207972;23;20539;-86
2023/08/18 04:01:03;;;;;;;19.08;14.25;;;;;;;16.57;100.00;101551.75;6207832;23;20062;-88
2023/08/18 04:03:29;;;;;;;20.05;14.73;;;;;;;16.58;100.00;101555.25;6206966;23;20329;-85
2023/08/18 04:05:54;;;;;;;19.73;14.63;;;;;;;16.51;100.00;101547.97;6207055;23;20012;-85
2023/08/18 04:08:19;;;;;;;19.02;14.70;;;;;;;16.43;100.00;101537.31;6206577;23;20004;-86
2023/08/18 04:10:45;;;;;;;19.73;14.52;;;;;;;16.42;100.00;101524.97;6206929;23;20012;-86
2023/08/18 04:13:10;;;;;;;18.63;14.48;;;;;;;16.43;100.00;101531.97;6180204;23;20004;-85
2023/08/18 04:15:36;;;;;;;20.73;15.18;;;;;;;16.57;100.00;101550.94;6207401;23;20012;-85
2023/08/18 04:18:01;;;;;;;20.02;14.63;;;;;;;16.49;100.00;101538.44;6207249;23;20719;-86
2023/08/18 04:20:26;;;;;;;21.38;15.23;;;;;;;16.56;100.00;101546.56;6180456;23;20020;-86
2023/08/18 04:22:52;;;;;;;18.60;14.45;;;;;;;16.52;100.00;101536.25;6207166;23;20016;-87
2023/08/18 04:25:17;;;;;;;18.60;14.60;;;;;;;16.53;100.00;101527.19;6207777;23;20005;-85
2023/08/18 04:27:42;;;;;;;19.38;14.77;;;;;;;16.49;100.00;101517.84;6207420;23;20452;-85
2023/08/18 04:30:10;;;;;;;20.33;14.15;;;;;;;16.43;100.00;101513.25;6180243;23;20009;-87
2023/08/18 04:32:36;;;;;;;21.55;15.35;;;;;;;16.42;100.00;101514.25;6207590;23;20019;-85
2023/08/18 04:35:01;;;;;;;20.27;14.82;;;;;;;16.41;100.00;101517.94;6180258;23;20390;-86
2023/08/18 04:37:26;;;;;;;20.30;14.65;;;;;;;16.49;100.00;101525.06;6206971;23;20012;-86
2023/08/18 04:39:52;;;;;;;22.33;15.68;;;;;;;16.56;100.00;101530.50;6207951;23;20397;-86
2023/08/18 04:42:17;;;;;;;22.27;15.57;;;;;;;16.54;100.00;101528.03;6206676;23;20004;-86
2023/08/18 04:44:43;;;;;;;23.17;15.55;;;;;;;16.34;100.00;101511.69;6207527;23;20005;-86
2023/08/18 04:47:08;;;;;;;22.88;15.48;;;;;;;16.41;100.00;101525.97;6207392;23;20168;-84
2023/08/18 04:49:34;;;;;;;23.48;16.25;;;;;;;16.38;100.00;101529.03;6207373;23;20554;-86
2023/08/18 04:51:59;;;;;;;23.63;16.17;;;;;;;16.47;100.00;101537.81;6207071;23;20040;-86
2023/08/18 04:54:24;;;;;;;22.95;15.77;;;;;;;16.52;100.00;101557.66;6180075;23;20059;-85
2023/08/18 04:56:57;;;;;;;24.25;15.65;;;;;;;16.50;100.00;101537.44;6180139;23;20004;-86
2023/08/18 04:59:23;;;;;;;22.98;16.27;;;;;;;16.43;100.00;101537.31;6180983;23;20013;-86
2023/08/18 05:01:51;;;;;;;23.60;15.60;;;;;;;16.51;100.00;101545.28;6208671;23;20054;-85
2023/08/18 05:04:17;;;;;;;23.17;16.13;;;;;;;16.51;100.00;101556.00;6210255;23;20005;-86
2023/08/18 05:06:42;;;;;;;21.42;15.82;;;;;;;16.44;100.00;101532.81;6209785;23;20020;-86
2023/08/18 05:09:07;;;;;;;22.17;16.35;;;;;;;16.42;100.00;101533.00;6183605;23;20098;-85
2023/08/18 05:11:34;;;;;;;24.63;15.88;;;;;;;16.39;100.00;101531.50;6210236;23;20004;-87
2023/08/18 05:13:59;;;;;;;24.02;16.20;;;;;;;16.40;100.00;101516.28;6210026;23;20009;-86
2023/08/18 05:16:25;;;;;;;22.83;16.23;;;;;;;16.56;100.00;101539.38;6209086;23;20016;-85
2023/08/18 05:18:50;;;;;;;23.95;15.98;;;;;;;16.42;100.00;101514.25;6208348;23;20008;-85
2023/08/18 05:21:15;;;;;;;25.98;16.27;;;;;;;16.42;100.00;101514.25;6208354;23;20008;-86
2023/08/18 05:23:41;;;;;;;23.60;15.90;;;;;;;16.56;100.00;101533.19;6181238;23;20288;-85
2023/08/18 05:26:07;;;;;;;24.00;16.38;;;;;;;16.52;100.00;101525.53;6180826;23;20016;-86
2023/08/18 05:28:32;;;;;;;25.05;16.00;;;;;;;16.45;100.00;101508.56;6207683;23;20334;-84
2023/08/18 05:30:58;;;;;;;21.42;16.20;;;;;;;16.64;100.00;101522.41;6179808;23;20017;-87
2023/08/18 05:33:23;;;;;;;24.17;16.27;;;;;;;16.63;100.00;101520.75;6208795;23;20009;-85
2023/08/18 05:35:48;;;;;;;24.50;16.65;;;;;;;16.67;100.00;101524.69;6209192;23;20078;-87
2023/08/18 05:38:14;;;;;;;25.90;16.83;;;;;;;16.63;100.00;101523.41;6208684;23;20074;-86
2023/08/18 05:40:41;;;;;;;23.10;16.52;;;;;;;16.67;100.00;101527.38;6208264;23;20008;-86
2023/08/18 05:43:06;;;;;;;27.08;17.23;;;;;;;16.62;100.00;101524.44;6208869;23;20015;-85
2023/08/18 05:45:34;;;;;;;25.17;17.02;;;;;;;16.51;100.00;101518.53;6208784;23;20382;-86
2023/08/18 05:48:00;;;;;;;22.63;16.65;;;;;;;16.46;100.00;101504.84;6208723;23;20091;-87
2023/08/18 05:50:27;;;;;;;25.88;17.05;;;;;;;16.62;100.00;101535.16;6208572;23;20457;-86
2023/08/18 05:52:52;;;;;;;22.98;17.45;;;;;;;16.60;100.00;101526.44;6209129;23;20009;-84
2023/08/18 05:55:18;;;;;;;23.98;16.73;;;;;;;16.56;100.00;101522.47;6209168;23;20448;-86
2023/08/18 05:57:44;;;;;;;23.85;17.02;;;;;;;16.57;100.00;101516.13;6208484;23;20009;-86
2023/08/18 06:00:12;;;;;;;23.88;17.48;;;;;;;16.58;100.00;101523.13;6208990;23;20045;-88
2023/08/18 06:02:37;;;;;;;23.40;16.95;;;;;;;16.47;100.00;101505.69;6208428;23;20420;-84
2023/08/18 06:05:04;;;;;;;24.45;17.50;;;;;;;16.63;100.00;101534.13;6181958;23;20011;-88
2023/08/18 06:07:29;;;;;;;25.52;17.83;;;;;;;16.53;100.00;101532.53;6181766;23;20398;-85
2023/08/18 06:09:55;;;;;;;24.10;17.20;;;;;;;16.52;100.00;101525.53;6208902;23;20062;-86
2023/08/18 06:12:20;;;;;;;24.80;17.77;;;;;;;16.53;100.00;101527.19;6208507;23;20024;-86
2023/08/18 06:14:45;;;;;;;23.38;18.02;;;;;;;16.48;100.00;101531.44;6209228;23;20024;-87
2023/08/18 06:17:10;;;;;;;27.00;19.27;;;;;;;16.51;100.00;101534.59;6209136;23;20004;-86
2023/08/18 06:19:36;;;;;;;26.48;18.70;;;;;;;16.47;100.00;101516.41;6208186;23;20067;-85
2023/08/18 06:22:01;;;;;;;26.35;18.20;;;;;;;16.54;100.00;101530.72;6208277;23;20012;-87
2023/08/18 06:24:26;;;;;;;24.70;18.05;;;;;;;16.61;100.00;101554.88;6208241;23;20087;-87
2023/08/18 06:26:52;;;;;;;24.55;17.80;;;;;;;16.59;100.00;101528.31;6207967;23;20832;-85
2023/08/18 06:29:19;;;;;;;27.17;18.10;;;;;;;16.55;100.00;101529.69;6208528;23;20029;-88
2023/08/18 06:31:45;;;;;;;26.50;18.23;;;;;;;16.59;100.00;101540.84;6208720;23;20012;-88
2023/08/18 06:34:10;;;;;;;25.15;18.10;;;;;;;16.47;100.00;101511.88;6208145;23;20655;-87
2023/08/18 06:36:36;;;;;;;25.92;18.48;;;;;;;16.56;100.00;101530.50;6208768;23;20015;-85
2023/08/18 06:39:01;;;;;;;26.25;19.23;;;;;;;16.43;100.00;101507.06;6181899;23;20009;-87
2023/08/18 06:41:26;;;;;;;27.67;19.33;;;;;;;16.43;100.00;101515.09;6208241;23;20005;-85
2023/08/18 06:43:52;;;;;;;28.13;20.08;;;;;;;16.45;100.00;101519.25;6208592;23;20088;-87
2023/08/18 06:46:17;;;;;;;26.17;19.63;;;;;;;16.50;100.00;101522.22;6208436;23;20004;-87
2023/08/18 06:48:43;;;;;;;26.35;19.25;;;;;;;16.40;100.00;101506.41;6181429;23;20008;-86
2023/08/18 06:51:08;;;;;;;26.88;19.95;;;;;;;16.51;100.00;101518.53;6208367;23;20004;-88
2023/08/18 06:53:34;;;;;;;26.92;19.58;;;;;;;16.54;100.00;101512.78;6208330;23;20009;-86
2023/08/18 06:56:00;;;;;;;29.67;21.38;;;;;;;16.63;100.00;101531.44;6208991;23;20429;-86
2023/08/18 06:58:26;;;;;;;29.55;21.23;;;;;;;16.47;100.00;101505.69;6208474;23;20413;-86
2023/08/18 07:00:52;;;;;;;30.42;21.08;;;;;;;16.57;100.00;101524.97;6208868;23;20039;-85
2023/08/18 07:03:17;;;;;;;28.65;21.17;;;;;;;16.65;100.00;101524.06;6208044;23;20110;-86
2023/08/18 07:05:43;;;;;;;27.10;20.42;;;;;;;16.65;100.00;101516.03;6208644;23;20505;-85
2023/08/18 07:08:08;;;;;;;27.60;20.67;;;;;;;16.70;100.00;101523.47;6207950;23;20387;-87
2023/08/18 07:10:34;;;;;;;28.83;21.30;;;;;;;16.73;100.00;101512.41;6208782;23;20008;-86
2023/08/18 07:12:59;;;;;;;30.02;21.38;;;;;;;16.84;100.00;101519.13;6207993;23;20032;-86
2023/08/18 07:15:24;;;;;;;30.95;21.13;;;;;;;16.78;100.00;101505.47;6207719;23;20459;-87
2023/08/18 07:17:50;;;;;;;28.38;20.50;;;;;;;16.85;100.00;101502.03;6208074;23;20668;-86
2023/08/18 07:20:15;;;;;;;29.75;22.10;;;;;;;16.70;100.00;101483.31;6208102;23;20095;-86
2023/08/18 07:22:41;;;;;;;30.83;21.77;;;;;;;16.75;100.00;101495.16;6208171;23;20079;-85
2023/08/18 07:25:09;;;;;;;31.60;22.45;;;;;;;16.78;100.00;101505.47;6207559;23;20011;-85
2023/08/18 07:27:35;;;;;;;30.00;21.90;;;;;;;16.88;100.00;101512.41;6180671;23;20088;-84
2023/08/18 07:30:01;;;;;;;30.25;21.55;;;;;;;16.88;100.00;101505.19;6207124;23;20064;-87
2023/08/18 07:32:26;;;;;;;30.92;21.42;;;;;;;16.98;100.00;101512.09;6207232;23;20399;-87
2023/08/18 07:34:51;;;;;;;27.55;20.30;;;;;;;17.06;100.00;101525.41;6208033;23;20019;-85
2023/08/18 07:37:17;;;;;;;28.58;20.98;;;;;;;17.06;100.00;101520.91;6207464;23;20040;-85
2023/08/18 07:39:42;;;;;;;28.65;20.67;;;;;;;16.92;100.00;101494.91;6208121;23;20530;-87
2023/08/18 07:42:08;;;;;;;27.55;19.63;;;;;;;16.98;100.00;101491.50;6208078;23;20015;-86
2023/08/18 07:44:33;;;;;;;28.77;20.50;;;;;;;17.00;100.00;101500.19;6208350;23;20410;-85
2023/08/18 07:46:59;;;;;;;28.83;21.02;;;;;;;17.15;100.00;101518.09;6207363;23;20032;-86
2023/08/18 07:49:24;;;;;;;27.58;20.33;;;;;;;17.18;100.00;101515.06;6207802;23;20005;-84
2023/08/18 07:51:50;;;;;;;29.77;21.05;;;;;;;17.18;100.00;101515.06;6207421;23;20433;-87
2023/08/18 07:54:15;;;;;;;30.27;21.60;;;;;;;17.00;100.00;101513.59;6206260;23;20079;-87
2023/08/18 07:56:40;;;;;;;28.50;20.75;;;;;;;17.08;100.00;101526.06;6180385;23;20013;-87
2023/08/18 07:59:06;;;;;;;29.35;21.45;;;;;;;17.05;100.00;101529.13;6207318;23;20005;-83
2023/08/18 08:01:31;;;;;;;29.48;21.52;;;;;;;17.05;100.00;101534.47;6205477;23;20126;-80
2023/08/18 08:03:57;;;;;;;28.35;21.42;;;;;;;16.96;100.00;101539.06;6205333;23;20032;-83
2023/08/18 08:06:22;;;;;;;30.25;21.90;;;;;;;16.92;100.00;101519.88;6206023;23;20040;-82
2023/08/18 08:08:47;;;;;;;30.60;21.88;;;;;;;17.07;100.00;101533.28;6205736;23;20012;-82
2023/08/18 08:11:14;;;;;;;30.73;22.08;;;;;;;17.03;100.00;101531.97;6206011;23;20493;-81
2023/08/18 08:13:40;;;;;;;32.38;22.65;;;;;;;17.06;100.00;101534.28;6206360;23;20112;-83
2023/08/18 08:16:05;;;;;;;29.00;22.08;;;;;;;17.15;100.00;101536.84;6179116;23;20036;-83
2023/08/18 08:18:33;;;;;;;31.23;21.92;;;;;;;17.13;100.00;101520.97;6207613;23;20011;-85
2023/08/18 08:21:00;;;;;;;30.60;21.75;;;;;;;17.01;100.00;101509.88;6207792;23;20018;-85
2023/08/18 08:23:25;;;;;;;30.67;21.75;;;;;;;17.20;100.00;101537.13;6207084;23;20005;-82
2023/08/18 08:25:51;;;;;;;29.25;21.48;;;;;;;17.23;100.00;101530.56;6205707;23;20082;-84
2023/08/18 08:28:16;;;;;;;29.25;21.42;;;;;;;17.10;100.00;101513.31;6205715;23;20013;-82
2023/08/18 08:30:44;;;;;;;28.05;20.40;;;;;;;17.24;100.00;101527.69;6205815;23;20015;-83
2023/08/18 08:33:13;;;;;;;26.98;20.13;;;;;;;17.13;100.00;101525.50;6206558;23;20067;-82
2023/08/18 08:35:39;;;;;;;27.58;20.30;;;;;;;17.25;100.00;101549.94;6205970;23;20066;-83
2023/08/18 08:38:04;;;;;;;27.35;20.77;;;;;;;17.29;100.00;101552.09;6206301;23;20013;-82
2023/08/18 08:40:29;;;;;;;26.88;20.08;;;;;;;17.30;100.00;101553.75;6178120;23;20872;-81
2023/08/18 08:42:56;;;;;;;28.50;20.02;;;;;;;17.31;100.00;101549.19;6205126;23;20011;-81
2023/08/18 08:45:23;;;;;;;25.85;19.15;;;;;;;17.31;100.00;101555.41;6204919;23;20004;-79
2023/08/18 08:47:50;;;;;;;25.15;18.92;;;;;;;17.35;100.00;101555.84;6204342;23;20040;-82
2023/08/18 08:50:17;;;;;;;26.40;18.83;;;;;;;17.35;100.00;101566.56;6206112;23;20005;-84
2023/08/18 08:52:48;;;;;;;26.27;18.83;;;;;;;17.42;100.00;101545.19;6179016;23;20004;-84
2023/08/18 08:55:16;;;;;;;27.75;18.48;;;;;;;17.51;100.00;101556.63;6205926;23;20083;-83
2023/08/18 08:57:42;;;;;;;28.10;19.33;;;;;;;17.56;100.00;101557.72;6206029;23;20493;-83
2023/08/18 09:00:09;;;;;;;25.55;18.70;;;;;;;17.52;100.00;101551.06;6206019;23;20043;-85
2023/08/18 09:02:35;;;;;;;25.27;19.38;;;;;;;17.57;100.00;101555.88;6205352;23;20070;-83
2023/08/18 09:05:01;;;;;;;24.58;19.25;;;;;;;17.58;100.00;101561.03;6205704;23;20433;-82
2023/08/18 09:07:28;;;;;;;25.73;19.67;;;;;;;17.56;100.00;101560.41;6205529;23;20005;-83
2023/08/18 09:09:53;;;;;;;26.30;20.05;;;;;;;17.70;100.00;101563.22;6205498;23;20017;-83
2023/08/18 09:12:26;;;;;;;26.88;19.80;;;;;;;17.73;100.00;101562.84;6204785;23;20137;-83
2023/08/18 09:14:53;;;;;;;25.45;19.83;;;;;;;17.71;100.00;101549.59;6205481;23;20034;-83
2023/08/18 09:17:19;;;;;;;24.80;18.33;;;;;;;17.81;100.00;101549.28;6205292;23;20079;-85
2023/08/18 09:19:44;;;;;;;24.90;18.85;;;;;;;17.84;100.00;101556.13;6205526;23;20017;-84
2023/08/18 09:22:11;;;;;;;24.42;18.98;;;;;;;17.91;100.00;101564.25;6205807;23;20019;-83
2023/08/18 09:24:36;;;;;;;25.13;19.45;;;;;;;17.92;100.00;101547.13;6205144;23;20005;-85
2023/08/18 09:27:10;;;;;;;24.40;19.27;;;;;;;17.99;100.00;101539.94;6204809;23;20032;-82
2023/08/18 09:29:36;;;;;;;25.65;19.70;;;;;;;17.94;100.00;101547.75;6204768;23;20083;-81
2023/08/18 09:32:02;;;;;;;26.25;19.50;;;;;;;17.90;100.00;101530.38;6205590;23;20021;-85
2023/08/18 09:34:27;;;;;;;26.40;19.83;;;;;;;18.00;100.00;101534.38;6205945;23;20005;-84
2023/08/18 09:36:56;;;;;;;28.40;21.35;;;;;;;18.04;100.00;101542.88;6205049;23;20054;-82
2023/08/18 09:39:24;;;;;;;29.55;21.50;;;;;;;18.07;100.00;101550.59;6205012;23;20417;-83
2023/08/18 09:41:51;;;;;;;27.88;20.85;;;;;;;18.10;100.00;101542.13;6205110;23;20009;-83
2023/08/18 09:44:17;;;;;;;26.75;20.42;;;;;;;18.14;100.00;101542.56;6178283;23;20015;-86
2023/08/18 09:46:49;;;;;;;27.38;20.10;;;;;;;18.19;100.00;101528.56;6206198;23;20019;-83
2023/08/18 09:49:17;;;;;;;27.52;21.00;;;;;;;18.32;100.00;101544.78;6208552;23;20015;-85
2023/08/18 09:51:44;;;;;;;27.02;20.63;;;;;;;18.29;100.00;101539.78;6208104;23;20110;-83
2023/08/18 09:54:12;;;;;;;28.27;19.63;;;;;;;18.40;100.00;101539.25;6208170;23;20013;-85
2023/08/18 09:56:41;;;;;;;31.38;22.05;;;;;;;18.39;100.00;101540.28;6207715;23;20019;-82
2023/08/18 09:59:14;;;;;;;31.85;24.50;;;;;;;18.38;100.00;101544.00;6208249;23;20314;-84
2023/08/18 10:01:42;;;;;;;29.60;22.42;;;;;;;18.39;100.00;101534.91;6208963;23;20011;-84
2023/08/18 10:04:09;;;;;;;29.02;22.08;;;;;;;18.46;100.00;101548.38;6208050;23;20062;-85
2023/08/18 10:06:38;;;;;;;27.85;21.23;;;;;;;18.52;100.00;101533.31;6208472;23;20008;-84
2023/08/18 10:09:05;;;;;;;28.55;21.85;;;;;;;18.60;100.00;101543.09;6209504;23;20013;-85
2023/08/18 10:11:33;;;;;;;30.00;22.55;;;;;;;18.55;100.00;101523.00;6182301;23;20083;-84
2023/08/18 10:13:59;;;;;;;31.25;24.15;;;;;;;18.63;100.00;101530.09;6223293;23;20008;-84
2023/08/18 10:16:25;;;;;;;30.98;23.70;;;;;;;18.43;100.00;101511.16;6220634;23;20135;-85
2023/08/18 10:18:57;;;;;;;29.48;23.38;;;;;;;18.66;100.00;101532.34;6219851;23;20004;-85
2023/08/18 10:21:31;;;;;;;33.17;25.23;;;;;;;18.67;100.00;101515.25;6194614;23;20020;-85
2023/08/18 10:23:57;;;;;;;30.92;23.67;;;;;;;18.71;100.00;101512.13;6220016;23;20509;-84
2023/08/18 10:26:24;;;;;;;32.88;24.40;;;;;;;18.87;100.00;101525.25;6213686;23;20012;-84
2023/08/18 10:28:49;;;;;;;31.50;24.45;;;;;;;18.76;100.00;101509.69;6207955;23;20032;-84
2023/08/18 10:31:16;;;;;;;34.47;25.38;;;;;;;18.87;100.00;101509.13;6208467;23;20008;-84
2023/08/18 10:33:47;;;;;;;35.17;28.25;;;;;;;18.96;100.00;101509.78;6208226;23;20012;-85
2023/08/18 10:36:16;;;;;;;38.03;28.60;;;;;;;19.07;100.00;101513.75;6207967;23;20520;-84
2023/08/18 10:38:41;;;;;;;33.97;27.48;;;;;;;19.02;100.00;101500.06;6207210;23;20131;-84
2023/08/18 10:41:06;;;;;;;33.03;26.02;;;;;;;19.03;100.00;101493.69;6207315;23;20334;-84
2023/08/18 10:43:55;;;;;;;32.22;25.95;;;;;;;19.29;100.00;101505.56;6180484;23;20298;-84
2023/08/18 10:46:32;;;;;;;32.55;26.38;;;;;;;19.24;100.00;101508.03;6207076;23;20032;-82
2023/08/18 10:48:57;;;;;;;30.35;25.92;;;;;;;19.38;100.00;101507.00;6206228;23;20043;-82
2023/08/18 10:51:23;;;;;;;30.80;25.55;;;;;;;19.37;100.00;101494.59;6206289;23;20062;-82
2023/08/18 10:53:49;;;;;;;29.52;24.48;;;;;;;19.39;100.00;101481.75;6206195;23;20079;-82
2023/08/18 10:56:14;;;;;;;33.08;26.23;;;;;;;19.51;100.00;101497.28;6205733;23;20408;-83
2023/08/18 10:58:40;;;;;;;32.38;25.92;;;;;;;19.60;100.00;101493.38;6205491;23;20004;-82